Astra — PB4187 — position and weather

sailwx.info

Track history (hours):
 
Tides and Currents Weather Stations Pressure Air Temp Water Temp Dewpoint Dewpoint Depression Visibility Wind Speed Wind Dir Waves Ship Positions

Astra

Last reported at 2015-Jul-31 10:33 UTC. Time now 2015-Jul-31 11:20 UTC.
Position N 51°10' E 006°51'.

Length 110 m; draft 2.8 m.

Type: Other ship. MMSI: 244650752.

Date/timePositionNaut miles runAvg speedWind from/ knotsBaromVisibWave heightAir tempDewpointWater temp
2015-Jul-31 10:33N 51°10' E 006°51'3 2.5
2015-Jul-31 09:33N 51°11' E 006°47'4 3.5
2015-Jul-31 08:33N 51°14' E 006°44'2 2.0
2015-Jul-31 07:31N 51°16' E 006°43'18 3.6
2015-Jul-31 02:33N 51°34' E 006°41'32 4.5
2015-Jul-30 19:22N 51°51' E 005°58'4 4.9
2015-Jul-30 18:31N 51°51' E 005°51'6 6.1
2015-Jul-30 17:31N 51°54' E 005°42'11 5.7
2015-Jul-30 15:33N 51°51' E 005°25'5 5.0
2015-Jul-30 14:32N 51°49' E 005°17'7 6.7
2015-Jul-30 13:33N 51°49' E 005°06'5 4.9
2015-Jul-30 12:33N 51°49' E 004°58'6 5.6
2015-Jul-30 11:33N 51°49' E 004°49'6 6.2
2015-Jul-30 10:33N 51°49' E 004°39'7 7.4
2015-Jul-30 09:33N 51°42' E 004°34'6 5.4
2015-Jul-30 08:30N 51°41' E 004°25'6 5.9
2015-Jul-30 07:33N 51°39' E 004°17'5 4.3
2015-Jul-30 06:27N 51°40' E 004°09'7 8.0
2015-Jul-30 05:33N 51°36' E 003°59'8 8.0
2015-Jul-30 04:33N 51°28' E 004°00'5 5.3
2015-Jul-30 03:33N 51°23' E 003°57'7 6.7
2015-Jul-30 02:33N 51°21' E 003°47'7 7.3
2015-Jul-30 01:33N 51°27' E 003°41'2 1.6
2015-Jul-30 00:33N 51°27' E 003°43'0 0.0
2015-Jul-29 23:33N 51°27' E 003°43'0 0.0
2015-Jul-29 22:33N 51°27' E 003°43'0 0.0
2015-Jul-29 21:33N 51°27' E 003°43'0 0.0
2015-Jul-29 20:33N 51°27' E 003°43'0 0.0
2015-Jul-29 19:33N 51°27' E 003°43'0 0.0
2015-Jul-29 18:33N 51°27' E 003°43'0 0.0
2015-Jul-29 17:33N 51°27' E 003°43'0 0.2
2015-Jul-29 16:33N 51°27' E 003°43'0 0.0
2015-Jul-29 15:33N 51°27' E 003°43'0 0.0
2015-Jul-29 14:33N 51°27' E 003°43'0 0.0
2015-Jul-29 13:33N 51°27' E 003°43'0 0.0
2015-Jul-29 12:33N 51°27' E 003°43'0 0.0
2015-Jul-29 11:33N 51°27' E 003°43'0 0.0
2015-Jul-29 10:33N 51°27' E 003°43'0 0.0
2015-Jul-29 09:33N 51°27' E 003°43'0 0.0
2015-Jul-29 08:33N 51°27' E 003°43'2 2.1
2015-Jul-29 07:33N 51°25' E 003°43'8 8.1
2015-Jul-29 06:33N 51°22' E 003°55'7 6.6
2015-Jul-29 05:33N 51°28' E 004°00'8 8.5
2015-Jul-29 04:33N 51°36' E 003°58'8 7.6
2015-Jul-29 03:32N 51°40' E 004°10'1 0.6
2015-Jul-29 02:33N 51°40' E 004°10'0 0.0
2015-Jul-29 01:29N 51°40' E 004°10'0 0.0
2015-Jul-29 00:33N 51°40' E 004°10'0 0.0
2015-Jul-28 23:33N 51°40' E 004°10'0 0.0
2015-Jul-28 22:32N 51°40' E 004°11'3 3.3
2015-Jul-28 21:33N 51°39' E 004°15'6 6.4
2015-Jul-28 20:33N 51°41' E 004°25'4 4.4
2015-Jul-28 19:33N 51°42' E 004°32'9 8.6
2015-Jul-28 18:33N 51°45' E 004°44'8 7.9
2015-Jul-28 17:32N 51°50' E 004°55'12 8.4
2015-Jul-28 16:06N 51°49' E 005°15'5 8.5
2015-Jul-28 15:33N 51°49' E 005°22'10 8.9
2015-Jul-28 14:26N 51°54' E 005°36'9 9.8
2015-Jul-28 13:31N 51°52' E 005°50'17 8.3
2015-Jul-28 11:32N 51°49' E 006°16'21 7.0
2015-Jul-28 08:31N 51°34' E 006°41'17 8.1
2015-Jul-28 06:27N 51°18' E 006°43'7 7.8
2015-Jul-28 05:34N 51°11' E 006°45'16 7.8
2015-Jul-28 03:29N 50°57' E 006°59'112 8.0
2015-Jul-27 13:32N 49°22' E 008°30'8 8.4
2015-Jul-27 12:33N 49°15' E 008°24'1110.7
2015-Jul-27 11:33N 49°04' E 008°20'0 0.1
2015-Jul-27 10:33N 49°04' E 008°20'0 0.0
2015-Jul-27 09:33N 49°04' E 008°20'0 0.0
2015-Jul-27 08:33N 49°04' E 008°20'0 0.0
2015-Jul-27 07:33N 49°04' E 008°20'0 0.0
2015-Jul-27 06:33N 49°04' E 008°20'0 0.2
2015-Jul-27 05:33N 49°04' E 008°20'0 0.1
2015-Jul-27 04:33N 49°04' E 008°20'0 0.0
2015-Jul-27 03:33N 49°04' E 008°20'0 0.0
2015-Jul-27 02:33N 49°04' E 008°20'0 0.0
2015-Jul-27 01:33N 49°04' E 008°20'0 0.0
2015-Jul-27 00:33N 49°04' E 008°20'0 0.0
2015-Jul-26 23:33N 49°04' E 008°20'0 0.0
2015-Jul-26 22:33N 49°04' E 008°20'0 0.0
2015-Jul-26 21:33N 49°04' E 008°20'0 0.0
2015-Jul-26 19:27N 49°04' E 008°20'0 0.0
2015-Jul-26 18:33N 49°04' E 008°20'4 3.5
2015-Jul-26 17:33N 49°08' E 008°22'4 4.5
2015-Jul-26 16:33N 49°12' E 008°23'4 4.3
2015-Jul-26 15:33N 49°16' E 008°26'3 3.2
2015-Jul-26 14:33N 49°19' E 008°27'110 4.0
2015-Jul-25 11:19N 50°54' E 007°00'4 4.7
2015-Jul-25 10:32N 50°57' E 006°58'10 4.2
2015-Jul-25 08:04N 51°07' E 006°53'3 4.8
2015-Jul-25 07:30N 51°09' E 006°51'3 3.1
2015-Jul-25 06:33N 51°11' E 006°47'3 3.0
2015-Jul-25 05:33N 51°14' E 006°45'20 3.9
2015-Jul-25 00:26N 51°33' E 006°41'36 4.5
2015-Jul-24 16:33N 51°51' E 005°51'6 6.1
2015-Jul-24 15:33N 51°54' E 005°42'11 5.7
2015-Jul-24 13:33N 51°50' E 005°24'5 5.2
2015-Jul-24 12:33N 51°49' E 005°16'9 6.9
2015-Jul-24 11:14N 51°49' E 005°01'6 8.1
2015-Jul-24 10:33N 51°49' E 004°53'8 8.4
2015-Jul-24 09:33N 51°49' E 004°39'8 7.9
2015-Jul-24 08:33N 51°50' E 004°26'8 7.9
2015-Jul-24 07:33N 51°52' E 004°14'2 1.6
2015-Jul-24 06:33N 51°54' E 004°13'0 0.0
2015-Jul-24 05:33N 51°54' E 004°13'0 0.0
2015-Jul-24 04:33N 51°54' E 004°13'0 0.0
2015-Jul-24 03:33N 51°54' E 004°13'0 0.0
2015-Jul-24 02:33N 51°54' E 004°13'0 0.0
2015-Jul-24 01:33N 51°54' E 004°13'0 0.0
2015-Jul-24 00:33N 51°54' E 004°13'0 0.0
2015-Jul-23 23:33N 51°54' E 004°13'0 0.0
2015-Jul-23 22:33N 51°54' E 004°13'0 0.0
2015-Jul-23 21:33N 51°54' E 004°13'2 1.6
2015-Jul-23 20:33N 51°53' E 004°15'0 0.0
2015-Jul-23 19:33N 51°53' E 004°15'3 2.9
2015-Jul-23 18:33N 51°54' E 004°19'8 7.7
2015-Jul-23 17:33N 51°54' E 004°32'5 5.4
2015-Jul-23 16:33N 51°51' E 004°39'0 0.0
2015-Jul-23 15:33N 51°51' E 004°39'0 0.0
2015-Jul-23 14:33N 51°51' E 004°39'0 0.0
2015-Jul-23 13:33N 51°51' E 004°39'0 0.0
2015-Jul-23 12:33N 51°51' E 004°39'0 0.0
2015-Jul-23 11:33N 51°51' E 004°39'0 0.0
2015-Jul-23 10:33N 51°51' E 004°39'0 0.0
2015-Jul-23 09:33N 51°51' E 004°39'0 0.0
2015-Jul-23 08:33N 51°51' E 004°39'0 0.0
2015-Jul-23 07:33N 51°51' E 004°39'0 0.0
2015-Jul-23 06:33N 51°51' E 004°39'0 0.0
2015-Jul-23 05:33N 51°51' E 004°39'0 0.0
2015-Jul-23 04:33N 51°51' E 004°39'0 0.0
2015-Jul-23 03:33N 51°51' E 004°39'0 0.0
2015-Jul-23 02:33N 51°51' E 004°39'0 0.0
2015-Jul-23 01:33N 51°51' E 004°39'0 0.0
2015-Jul-23 00:33N 51°51' E 004°39'0 0.0
2015-Jul-22 23:33N 51°51' E 004°39'0 0.0
2015-Jul-22 22:33N 51°51' E 004°39'0 0.0
2015-Jul-22 21:33N 51°51' E 004°39'0 0.0
2015-Jul-22 20:33N 51°51' E 004°39'0 0.0
2015-Jul-22 19:33N 51°51' E 004°39'0 0.0
2015-Jul-22 18:33N 51°51' E 004°39'0 0.0
2015-Jul-22 17:33N 51°51' E 004°39'0 0.0
2015-Jul-22 16:33N 51°51' E 004°39'0 0.0
2015-Jul-22 15:33N 51°51' E 004°39'0 0.0
2015-Jul-22 14:33N 51°51' E 004°39'0 0.0
2015-Jul-22 13:33N 51°51' E 004°39'0 0.0
2015-Jul-22 12:31N 51°51' E 004°39'0 0.0
2015-Jul-22 11:33N 51°51' E 004°39'0 0.0
2015-Jul-22 10:33N 51°51' E 004°39'0 0.0
2015-Jul-22 09:33N 51°51' E 004°39'0 0.0
2015-Jul-22 08:33N 51°51' E 004°39'0 0.0
2015-Jul-22 07:33N 51°51' E 004°39'0 0.0
2015-Jul-22 06:33N 51°51' E 004°39'0 0.1
2015-Jul-22 05:33N 51°51' E 004°39'0 0.0
2015-Jul-22 04:33N 51°51' E 004°39'0 0.0
2015-Jul-22 03:33N 51°51' E 004°39'0 0.0
2015-Jul-22 02:33N 51°51' E 004°39'0 0.0
2015-Jul-22 01:33N 51°51' E 004°39'0 0.0
2015-Jul-22 00:33N 51°51' E 004°39'0 0.0
2015-Jul-21 23:33N 51°51' E 004°39'0 0.0
2015-Jul-21 22:33N 51°51' E 004°39'0 0.0
2015-Jul-21 21:33N 51°51' E 004°39'0 0.0
2015-Jul-21 20:33N 51°51' E 004°39'0 0.0
2015-Jul-21 19:33N 51°51' E 004°39'3 3.1
2015-Jul-21 18:33N 51°54' E 004°42'8 7.9
2015-Jul-21 17:32N 51°57' E 004°54'8 7.8
2015-Jul-21 16:33N 52°00' E 005°05'6 6.0
2015-Jul-21 15:33N 52°06' E 005°05'8 8.3
2015-Jul-21 14:33N 52°14' E 005°01'8 8.5
2015-Jul-21 13:34N 52°22' E 004°57'7 7.5
2015-Jul-21 12:33N 52°25' E 004°46'1 0.9
2015-Jul-21 11:33N 52°25' E 004°47'0 0.0
2015-Jul-21 10:33N 52°25' E 004°47'  
Track history (hours):
 
Tides and Currents Weather Stations Pressure Air Temp Water Temp Dewpoint Dewpoint Depression Visibility Wind Speed Wind Dir Waves Ship Positions

Astra

Last reported at 2015-Jul-31 10:33 UTC. Time now 2015-Jul-31 11:20 UTC.
Position N 51°10' E 006°51'.

Length 110 m; draft 2.8 m.

Type: Other ship. MMSI: 244650752.

Date/timePositionNaut miles runAvg speedWind from/ knotsBaromVisibWave heightAir tempDewpointWater temp
2015-Jul-31 10:33N 51°10' E 006°51'3 2.5
2015-Jul-31 09:33N 51°11' E 006°47'4 3.5
2015-Jul-31 08:33N 51°14' E 006°44'2 2.0
2015-Jul-31 07:31N 51°16' E 006°43'18 3.6
2015-Jul-31 02:33N 51°34' E 006°41'32 4.5
2015-Jul-30 19:22N 51°51' E 005°58'4 4.9
2015-Jul-30 18:31N 51°51' E 005°51'6 6.1
2015-Jul-30 17:31N 51°54' E 005°42'11 5.7
2015-Jul-30 15:33N 51°51' E 005°25'5 5.0
2015-Jul-30 14:32N 51°49' E 005°17'7 6.7
2015-Jul-30 13:33N 51°49' E 005°06'5 4.9
2015-Jul-30 12:33N 51°49' E 004°58'6 5.6
2015-Jul-30 11:33N 51°49' E 004°49'6 6.2
2015-Jul-30 10:33N 51°49' E 004°39'7 7.4
2015-Jul-30 09:33N 51°42' E 004°34'6 5.4
2015-Jul-30 08:30N 51°41' E 004°25'6 5.9
2015-Jul-30 07:33N 51°39' E 004°17'5 4.3
2015-Jul-30 06:27N 51°40' E 004°09'7 8.0
2015-Jul-30 05:33N 51°36' E 003°59'8 8.0
2015-Jul-30 04:33N 51°28' E 004°00'5 5.3
2015-Jul-30 03:33N 51°23' E 003°57'7 6.7
2015-Jul-30 02:33N 51°21' E 003°47'7 7.3
2015-Jul-30 01:33N 51°27' E 003°41'2 1.6
2015-Jul-30 00:33N 51°27' E 003°43'0 0.0
2015-Jul-29 23:33N 51°27' E 003°43'0 0.0
2015-Jul-29 22:33N 51°27' E 003°43'0 0.0
2015-Jul-29 21:33N 51°27' E 003°43'0 0.0
2015-Jul-29 20:33N 51°27' E 003°43'0 0.0
2015-Jul-29 19:33N 51°27' E 003°43'0 0.0
2015-Jul-29 18:33N 51°27' E 003°43'0 0.0
2015-Jul-29 17:33N 51°27' E 003°43'0 0.2
2015-Jul-29 16:33N 51°27' E 003°43'0 0.0
2015-Jul-29 15:33N 51°27' E 003°43'0 0.0
2015-Jul-29 14:33N 51°27' E 003°43'0 0.0
2015-Jul-29 13:33N 51°27' E 003°43'0 0.0
2015-Jul-29 12:33N 51°27' E 003°43'0 0.0
2015-Jul-29 11:33N 51°27' E 003°43'0 0.0
2015-Jul-29 10:33N 51°27' E 003°43'0 0.0
2015-Jul-29 09:33N 51°27' E 003°43'0 0.0
2015-Jul-29 08:33N 51°27' E 003°43'2 2.1
2015-Jul-29 07:33N 51°25' E 003°43'8 8.1
2015-Jul-29 06:33N 51°22' E 003°55'7 6.6
2015-Jul-29 05:33N 51°28' E 004°00'8 8.5
2015-Jul-29 04:33N 51°36' E 003°58'8 7.6
2015-Jul-29 03:32N 51°40' E 004°10'1 0.6
2015-Jul-29 02:33N 51°40' E 004°10'0 0.0
2015-Jul-29 01:29N 51°40' E 004°10'0 0.0
2015-Jul-29 00:33N 51°40' E 004°10'0 0.0
2015-Jul-28 23:33N 51°40' E 004°10'0 0.0
2015-Jul-28 22:32N 51°40' E 004°11'3 3.3
2015-Jul-28 21:33N 51°39' E 004°15'6 6.4
2015-Jul-28 20:33N 51°41' E 004°25'4 4.4
2015-Jul-28 19:33N 51°42' E 004°32'9 8.6
2015-Jul-28 18:33N 51°45' E 004°44'8 7.9
2015-Jul-28 17:32N 51°50' E 004°55'12 8.4
2015-Jul-28 16:06N 51°49' E 005°15'5 8.5
2015-Jul-28 15:33N 51°49' E 005°22'10 8.9
2015-Jul-28 14:26N 51°54' E 005°36'9 9.8
2015-Jul-28 13:31N 51°52' E 005°50'17 8.3
2015-Jul-28 11:32N 51°49' E 006°16'21 7.0
2015-Jul-28 08:31N 51°34' E 006°41'17 8.1
2015-Jul-28 06:27N 51°18' E 006°43'7 7.8
2015-Jul-28 05:34N 51°11' E 006°45'16 7.8
2015-Jul-28 03:29N 50°57' E 006°59'112 8.0
2015-Jul-27 13:32N 49°22' E 008°30'8 8.4
2015-Jul-27 12:33N 49°15' E 008°24'1110.7
2015-Jul-27 11:33N 49°04' E 008°20'0 0.1
2015-Jul-27 10:33N 49°04' E 008°20'0 0.0
2015-Jul-27 09:33N 49°04' E 008°20'0 0.0
2015-Jul-27 08:33N 49°04' E 008°20'0 0.0
2015-Jul-27 07:33N 49°04' E 008°20'0 0.0
2015-Jul-27 06:33N 49°04' E 008°20'0 0.2
2015-Jul-27 05:33N 49°04' E 008°20'0 0.1
2015-Jul-27 04:33N 49°04' E 008°20'0 0.0
2015-Jul-27 03:33N 49°04' E 008°20'0 0.0
2015-Jul-27 02:33N 49°04' E 008°20'0 0.0
2015-Jul-27 01:33N 49°04' E 008°20'0 0.0
2015-Jul-27 00:33N 49°04' E 008°20'0 0.0
2015-Jul-26 23:33N 49°04' E 008°20'0 0.0
2015-Jul-26 22:33N 49°04' E 008°20'0 0.0
2015-Jul-26 21:33N 49°04' E 008°20'0 0.0
2015-Jul-26 19:27N 49°04' E 008°20'0 0.0
2015-Jul-26 18:33N 49°04' E 008°20'4 3.5
2015-Jul-26 17:33N 49°08' E 008°22'4 4.5
2015-Jul-26 16:33N 49°12' E 008°23'4 4.3
2015-Jul-26 15:33N 49°16' E 008°26'3 3.2
2015-Jul-26 14:33N 49°19' E 008°27'110 4.0
2015-Jul-25 11:19N 50°54' E 007°00'4 4.7
2015-Jul-25 10:32N 50°57' E 006°58'10 4.2
2015-Jul-25 08:04N 51°07' E 006°53'3 4.8
2015-Jul-25 07:30N 51°09' E 006°51'3 3.1
2015-Jul-25 06:33N 51°11' E 006°47'3 3.0
2015-Jul-25 05:33N 51°14' E 006°45'20 3.9
2015-Jul-25 00:26N 51°33' E 006°41'36 4.5
2015-Jul-24 16:33N 51°51' E 005°51'6 6.1
2015-Jul-24 15:33N 51°54' E 005°42'11 5.7
2015-Jul-24 13:33N 51°50' E 005°24'5 5.2
2015-Jul-24 12:33N 51°49' E 005°16'9 6.9
2015-Jul-24 11:14N 51°49' E 005°01'6 8.1
2015-Jul-24 10:33N 51°49' E 004°53'8 8.4
2015-Jul-24 09:33N 51°49' E 004°39'8 7.9
2015-Jul-24 08:33N 51°50' E 004°26'8 7.9
2015-Jul-24 07:33N 51°52' E 004°14'2 1.6
2015-Jul-24 06:33N 51°54' E 004°13'0 0.0
2015-Jul-24 05:33N 51°54' E 004°13'0 0.0
2015-Jul-24 04:33N 51°54' E 004°13'0 0.0
2015-Jul-24 03:33N 51°54' E 004°13'0 0.0
2015-Jul-24 02:33N 51°54' E 004°13'0 0.0
2015-Jul-24 01:33N 51°54' E 004°13'0 0.0
2015-Jul-24 00:33N 51°54' E 004°13'0 0.0
2015-Jul-23 23:33N 51°54' E 004°13'0 0.0
2015-Jul-23 22:33N 51°54' E 004°13'0 0.0
2015-Jul-23 21:33N 51°54' E 004°13'2 1.6
2015-Jul-23 20:33N 51°53' E 004°15'0 0.0
2015-Jul-23 19:33N 51°53' E 004°15'3 2.9
2015-Jul-23 18:33N 51°54' E 004°19'8 7.7
2015-Jul-23 17:33N 51°54' E 004°32'5 5.4
2015-Jul-23 16:33N 51°51' E 004°39'0 0.0
2015-Jul-23 15:33N 51°51' E 004°39'0 0.0
2015-Jul-23 14:33N 51°51' E 004°39'0 0.0
2015-Jul-23 13:33N 51°51' E 004°39'0 0.0
2015-Jul-23 12:33N 51°51' E 004°39'0 0.0
2015-Jul-23 11:33N 51°51' E 004°39'0 0.0
2015-Jul-23 10:33N 51°51' E 004°39'0 0.0
2015-Jul-23 09:33N 51°51' E 004°39'0 0.0
2015-Jul-23 08:33N 51°51' E 004°39'0 0.0
2015-Jul-23 07:33N 51°51' E 004°39'0 0.0
2015-Jul-23 06:33N 51°51' E 004°39'0 0.0
2015-Jul-23 05:33N 51°51' E 004°39'0 0.0
2015-Jul-23 04:33N 51°51' E 004°39'0 0.0
2015-Jul-23 03:33N 51°51' E 004°39'0 0.0
2015-Jul-23 02:33N 51°51' E 004°39'0 0.0
2015-Jul-23 01:33N 51°51' E 004°39'0 0.0
2015-Jul-23 00:33N 51°51' E 004°39'0 0.0
2015-Jul-22 23:33N 51°51' E 004°39'0 0.0
2015-Jul-22 22:33N 51°51' E 004°39'0 0.0
2015-Jul-22 21:33N 51°51' E 004°39'0 0.0
2015-Jul-22 20:33N 51°51' E 004°39'0 0.0
2015-Jul-22 19:33N 51°51' E 004°39'0 0.0
2015-Jul-22 18:33N 51°51' E 004°39'0 0.0
2015-Jul-22 17:33N 51°51' E 004°39'0 0.0
2015-Jul-22 16:33N 51°51' E 004°39'0 0.0
2015-Jul-22 15:33N 51°51' E 004°39'0 0.0
2015-Jul-22 14:33N 51°51' E 004°39'0 0.0
2015-Jul-22 13:33N 51°51' E 004°39'0 0.0
2015-Jul-22 12:31N 51°51' E 004°39'0 0.0
2015-Jul-22 11:33N 51°51' E 004°39'0 0.0
2015-Jul-22 10:33N 51°51' E 004°39'0 0.0
2015-Jul-22 09:33N 51°51' E 004°39'0 0.0
2015-Jul-22 08:33N 51°51' E 004°39'0 0.0
2015-Jul-22 07:33N 51°51' E 004°39'0 0.0
2015-Jul-22 06:33N 51°51' E 004°39'0 0.1
2015-Jul-22 05:33N 51°51' E 004°39'0 0.0
2015-Jul-22 04:33N 51°51' E 004°39'0 0.0
2015-Jul-22 03:33N 51°51' E 004°39'0 0.0
2015-Jul-22 02:33N 51°51' E 004°39'0 0.0
2015-Jul-22 01:33N 51°51' E 004°39'0 0.0
2015-Jul-22 00:33N 51°51' E 004°39'0 0.0
2015-Jul-21 23:33N 51°51' E 004°39'0 0.0
2015-Jul-21 22:33N 51°51' E 004°39'0 0.0
2015-Jul-21 21:33N 51°51' E 004°39'0 0.0
2015-Jul-21 20:33N 51°51' E 004°39'0 0.0
2015-Jul-21 19:33N 51°51' E 004°39'3 3.1
2015-Jul-21 18:33N 51°54' E 004°42'8 7.9
2015-Jul-21 17:32N 51°57' E 004°54'8 7.8
2015-Jul-21 16:33N 52°00' E 005°05'6 6.0
2015-Jul-21 15:33N 52°06' E 005°05'8 8.3
2015-Jul-21 14:33N 52°14' E 005°01'8 8.5
2015-Jul-21 13:34N 52°22' E 004°57'7 7.5
2015-Jul-21 12:33N 52°25' E 004°46'1 0.9
2015-Jul-21 11:33N 52°25' E 004°47'0 0.0
2015-Jul-21 10:33N 52°25' E 004°47'  

Dump ship's entire track history